LFLB Airport Information

Runway Information
Runway 18 Length 6628 ft width 148 ft
Elevation 769 ft Threshold 755 ft Heading 176
Runway 36 Length 6628 ft Width 148 ft
Elevation 778 ft Threshold 460 ft Heading 356
Airport Frequencies
Type APP Name CHAMBERY A Frequency 123.7 MHZ
Type ATIS Name CHAMBERY A Frequency 124.575 MHZ
Type TWR Name CHAMBERY T Frequency 118.3 MHZ
Airport Navaids
Airport Weather Information & NOTAM
ADDS - METARS form results

(1551 UTC 24 April 2019)
Data provider http://aviationweather.gov/metar/data/
 
METAR text: LFLB 241530Z AUTO 16013KT 130V190 9000 NSC 18/07 Q1005 TEMPO 18015G33KT
Conditions at: LFLB (CHAMBERY/AIX BAI, FR) observed 1530 UTC 24 April 2019
Temperature: 18.0°C (64°F)
Dewpoint: 7.0°C (45°F) [RH = 49%]
Pressure (altimeter): 29.68 inches Hg (1005.0 mb)
Winds: from the SSE (160 degrees) at 15 MPH (13 knots; 6.7 m/s)
Visibility: 6 miles ( 9 km)
Ceiling: at least 12,000 feet AGL
Clouds: sky clear below 12,000 feet AGL
Weather: no significant weather observed at this time

METAR text: LFLB 241500Z AUTO 13016G27KT 9999 3200 FEW080 17/06 Q1005 TEMPO 20015G30KT
Conditions at: LFLB (CHAMBERY/AIX BAI, FR) observed 1500 UTC 24 April 2019
Temperature: 17.0°C (63°F)
Dewpoint: 6.0°C (43°F) [RH = 48%]
Pressure (altimeter): 29.68 inches Hg (1005.0 mb)
Winds: from the SE (130 degrees) at 18 MPH (16 knots; 8.2 m/s)
gusting to 31 MPH (27 knots; 13.9 m/s)
Visibility: 6 or more miles (10+ km)
Ceiling: at least 12,000 feet AGL
Clouds: few clouds at 8000 feet AGL
Weather: no significant weather observed at this time

Forecast for: AMD
Text: TAF AMD LFLB 241511Z 2415/2512 18012KT CAVOK
Forecast period: 1500 UTC 24 April 2019 to 1200 UTC 25 April 2019
Forecast type: FROM: standard forecast or significant change
Winds: from the S (180 degrees) at 14 MPH (12 knots; 6.2 m/s)
Visibility: 6 or more miles 10+ km)
Ceiling: unknown
Clouds: missing
Weather: NSW  (no significant weather)
Text: PROB40
Forecast period: 1500 to 1900 UTC 24 April 2019
Forecast type: TEMPORARY: The following changes expected for less than half the time period
Winds: from the S (180 degrees) at 17 MPH (15 knots; 7.7 m/s)
gusting to 38 MPH (33 knots; 17.0 m/s)
Visibility: missing
Ceiling: unknown
Clouds: missing
Weather: no significant weather forecast for this period